TimeCDT,TemperatureF,Dew PointF,Humidity,Sea Level PressureIn,VisibilityMPH,Wind Direction,Wind SpeedMPH,Gust SpeedMPH,PrecipitationIn,Events,Conditions,WindDirDegrees,DateUTC
12:15 AM,47.8,43.2,84,30.12,2.5,SE,4.6,-,N/A,Rain,Light Rain,130,2013-10-30 05:15:00
12:35 AM,47.8,43.3,84,30.12,2.5,ESE,5.8,-,N/A,,Haze,110,2013-10-30 05:35:00
12:55 AM,48.0,43.5,84,30.12,2.5,ESE,4.6,-,N/A,,Overcast,110,2013-10-30 05:55:00
1:15 AM,48.2,43.7,84,30.11,2.5,ESE,5.8,-,N/A,,Overcast,110,2013-10-30 06:15:00
1:35 AM,48.2,43.7,84,30.10,2.0,ESE,4.6,-,N/A,,Overcast,120,2013-10-30 06:35:00
1:55 AM,48.2,43.9,85,30.10,2.0,ESE,3.5,-,N/A,,Overcast,110,2013-10-30 06:55:00
2:15 AM,48.2,43.9,85,30.09,1.8,SE,6.9,-,N/A,,Overcast,130,2013-10-30 07:15:00
2:35 AM,48.2,44.6,87,30.09,1.8,ESE,4.6,-,N/A,,Overcast,120,2013-10-30 07:35:00
2:55 AM,48.4,44.6,87,30.09,1.8,SE,3.5,-,N/A,,Overcast,130,2013-10-30 07:55:00
3:15 AM,48.4,44.6,87,30.09,1.8,ESE,3.5,-,N/A,,Overcast,110,2013-10-30 08:15:00
3:35 AM,48.6,44.8,87,30.10,1.8,Calm,Calm,-,N/A,,Overcast,0,2013-10-30 08:35:00
3:55 AM,48.6,44.6,86,30.08,1.0,ESE,4.6,-,N/A,Rain,Rain,110,2013-10-30 08:55:00
4:15 AM,48.6,44.8,87,30.08,1.0,ESE,4.6,-,N/A,,Light Drizzle,110,2013-10-30 09:15:00
4:35 AM,48.9,45.0,86,30.09,1.2,ESE,4.6,-,N/A,,Overcast,120,2013-10-30 09:35:00
4:55 AM,49.1,45.5,87,30.08,1.5,ESE,4.6,-,N/A,,Overcast,110,2013-10-30 09:55:00
5:15 AM,49.1,45.5,87,30.08,1.5,East,3.5,-,N/A,,Overcast,100,2013-10-30 10:15:00
5:35 AM,49.3,45.5,87,30.09,1.5,SE,3.5,-,N/A,,Overcast,140,2013-10-30 10:35:00
5:55 AM,49.1,45.5,87,30.08,1.2,SE,3.5,-,N/A,,Overcast,140,2013-10-30 10:55:00
6:15 AM,49.1,45.5,87,30.08,1.0,SE,4.6,-,N/A,,Overcast,140,2013-10-30 11:15:00
6:35 AM,49.1,45.5,87,30.07,0.8,ESE,4.6,-,N/A,,Overcast,110,2013-10-30 11:35:00
6:55 AM,49.3,45.5,87,30.07,0.5,SE,3.5,-,N/A,Fog,Fog,130,2013-10-30 11:55:00
7:15 AM,50.0,46.0,86,30.07,0.8,SE,3.5,-,N/A,,Overcast,130,2013-10-30 12:15:00
7:35 AM,50.0,46.6,88,30.08,0.2,SSE,4.6,-,N/A,Fog,Fog,150,2013-10-30 12:35:00
7:55 AM,50.2,46.8,88,30.08,0.2,SE,5.8,-,N/A,Fog,Fog,130,2013-10-30 12:55:00
8:15 AM,50.5,47.3,89,30.09,0.2,SSE,4.6,-,N/A,Fog,Fog,150,2013-10-30 13:15:00
8:35 AM,50.9,48.0,90,30.09,0.2,SSE,4.6,-,N/A,Fog,Fog,160,2013-10-30 13:35:00
8:55 AM,51.8,49.3,91,30.10,0.8,SSE,3.5,-,N/A,,Overcast,150,2013-10-30 13:55:00
9:15 AM,52.2,49.8,92,30.07,1.0,SE,4.6,-,N/A,,Overcast,140,2013-10-30 14:15:00
9:35 AM,53.6,51.1,91,30.09,1.2,SSE,5.8,-,N/A,,Overcast,150,2013-10-30 14:35:00
9:55 AM,54.0,51.8,92,30.08,1.0,SE,6.9,-,N/A,,Overcast,140,2013-10-30 14:55:00
10:15 AM,54.9,52.7,92,30.08,0.8,SSE,6.9,-,N/A,,Overcast,150,2013-10-30 15:15:00
10:35 AM,55.0,53.1,93,30.07,0.8,SSE,6.9,-,N/A,,Overcast,160,2013-10-30 15:35:00
10:55 AM,55.6,53.6,93,30.06,0.8,SSE,4.6,-,N/A,,Overcast,150,2013-10-30 15:55:00
11:15 AM,56.1,54.3,94,30.05,1.0,SSE,5.8,-,N/A,,Overcast,150,2013-10-30 16:15:00
11:35 AM,56.7,54.9,94,30.06,1.0,SSE,3.5,-,N/A,,Overcast,160,2013-10-30 16:35:00
11:55 AM,57.4,55.6,94,30.04,1.5,SE,5.8,-,N/A,,Overcast,140,2013-10-30 16:55:00
12:15 PM,58.3,56.5,94,30.03,2.0,SE,6.9,-,N/A,,Overcast,140,2013-10-30 17:15:00
12:35 PM,59.0,57.2,94,30.02,2.5,SE,6.9,-,N/A,,Overcast,140,2013-10-30 17:35:00
12:55 PM,60.1,58.1,93,30.01,2.5,SSE,6.9,-,N/A,,Overcast,160,2013-10-30 17:55:00
1:15 PM,60.1,57.7,92,30.00,2.0,SSE,6.9,-,N/A,,Overcast,160,2013-10-30 18:15:00
1:35 PM,59.5,57.2,92,30.01,2.0,SSE,4.6,-,N/A,,Overcast,150,2013-10-30 18:35:00
1:55 PM,59.9,57.7,93,30.00,2.0,SE,8.1,-,N/A,,Overcast,130,2013-10-30 18:55:00
2:15 PM,60.3,57.9,92,29.98,2.0,SE,8.1,-,N/A,,Overcast,130,2013-10-30 19:15:00
2:35 PM,61.2,58.5,91,29.96,2.0,SE,8.1,-,N/A,,Overcast,130,2013-10-30 19:35:00
2:55 PM,61.7,58.8,90,29.96,2.5,SE,8.1,-,N/A,,Overcast,140,2013-10-30 19:55:00
3:15 PM,61.7,59.0,91,29.97,2.5,SE,9.2,-,N/A,,Overcast,140,2013-10-30 20:15:00
3:35 PM,62.1,59.2,90,29.95,2.5,SE,9.2,-,N/A,,Overcast,140,2013-10-30 20:35:00
3:55 PM,62.1,59.0,90,29.95,2.5,SE,9.2,-,N/A,,Overcast,140,2013-10-30 20:55:00
4:15 PM,62.1,59.0,90,29.94,2.5,SE,9.2,-,N/A,,Overcast,140,2013-10-30 21:15:00
4:35 PM,61.9,58.8,90,29.93,2.5,SE,10.4,-,N/A,,Overcast,140,2013-10-30 21:35:00
4:55 PM,61.7,58.6,90,29.93,2.5,SE,10.4,-,N/A,,Overcast,140,2013-10-30 21:55:00
5:15 PM,61.3,58.6,91,29.94,2.5,SSE,9.2,-,N/A,,Overcast,160,2013-10-30 22:15:00
5:35 PM,62.1,59.9,93,29.93,3.0,SSE,10.4,-,0.01,Rain,Heavy Rain,160,2013-10-30 22:35:00
5:55 PM,62.1,59.9,93,29.92,3.0,SSE,9.2,-,0.01,Rain,Rain,160,2013-10-30 22:55:00
6:15 PM,62.1,59.9,93,29.92,3.0,SSE,9.2,-,N/A,Rain,Rain,150,2013-10-30 23:15:00
7:55 PM,62.6,60.8,94,29.90,4.0,SSE,10.4,-,N/A,Rain,Rain,160,2013-10-31 00:55:00
8:15 PM,63.1,61.5,94,29.89,5.0,South,12.7,21.9,N/A,Rain,Rain,180,2013-10-31 01:15:00
8:35 PM,63.7,61.3,92,29.89,7.0,South,19.6,23.0,N/A,Rain,Rain,190,2013-10-31 01:35:00
8:55 PM,63.5,61.0,91,29.90,7.0,South,16.1,23.0,0.01,Rain,Light Rain,190,2013-10-31 01:55:00
9:15 PM,63.0,60.8,93,29.89,7.0,South,12.7,-,0.01,Rain,Light Rain,190,2013-10-31 02:15:00
9:35 PM,62.8,60.8,93,29.88,7.0,South,11.5,-,0.01,Rain,Light Rain,190,2013-10-31 02:35:00
9:55 PM,62.8,60.8,93,29.88,7.0,South,15.0,-,0.01,Rain,Rain,190,2013-10-31 02:55:00
10:15 PM,62.8,60.8,93,29.88,7.0,South,15.0,20.7,N/A,Rain,Light Rain,190,2013-10-31 03:15:00
10:35 PM,62.6,60.3,92,29.87,10.0,South,15.0,21.9,0.01,Rain,Light Rain,190,2013-10-31 03:35:00
10:55 PM,62.8,59.9,90,29.87,10.0,South,15.0,23.0,0.01,Rain,Rain,190,2013-10-31 03:55:00
11:15 PM,62.6,59.9,91,29.86,10.0,South,19.6,26.5,N/A,Rain,Light Rain,190,2013-10-31 04:15:00
11:35 PM,62.8,59.9,90,29.86,10.0,SSW,17.3,28.8,N/A,Rain,Light Rain,200,2013-10-31 04:35:00
11:55 PM,62.8,59.9,90,29.85,7.0,SSW,19.6,26.5,N/A,Rain,Light Rain,200,2013-10-31 04:55:00